Time;durP1;ratioP1;P1;durP2;ratioP2;P2;SDS_P1;SDS_P2;PMS_P1;PMS_P2;Temp;Humidity;BMP_temperature;BMP_pressure;BME280_temperature;BME280_humidity;BME280_pressure;Samples;Min_cycle;Max_cycle;Signal;HPM_P1;HPM_P2
2022/07/15 00:00:38;;;;;;;;;;;16.50;84.90;;;;;;5034578;28;19951;-75
2022/07/15 00:03:04;;;;;;;;;;;16.60;84.90;;;;;;5036179;28;19939;-75
2022/07/15 00:05:29;;;;;;;;;;;16.50;85.10;;;;;;5035264;28;19917;-75
2022/07/15 00:07:55;;;;;;;;;;;16.30;86.30;;;;;;5033473;28;19909;-75
2022/07/15 00:10:21;;;;;;;;;;;16.20;86.70;;;;;;5033318;28;19917;-75
2022/07/15 00:12:56;;;;;;;;;;;16.10;87.60;;;;;;5032906;28;19909;-75
2022/07/15 00:15:23;;;;;;;;;;;16.10;88.30;;;;;;5031661;28;19974;-75
2022/07/15 00:17:49;;;;;;;;;;;16.20;87.40;;;;;;5025584;28;19914;-75
2022/07/15 00:20:15;;;;;;;;;;;16.00;86.90;;;;;;5067761;28;20317;-75
2022/07/15 00:22:41;;;;;;;;;;;16.10;88.10;;;;;;5052033;28;19967;-74
2022/07/15 00:25:07;;;;;;;;;;;16.20;88.00;;;;;;5044917;28;20325;-75
2022/07/15 00:27:33;;;;;;;;;;;16.30;86.00;;;;;;5037127;28;19909;-75
2022/07/15 00:29:58;;;;;;;;;;;16.30;87.10;;;;;;5041164;28;19916;-75
2022/07/15 00:32:24;;;;;;;;;;;16.00;87.60;;;;;;5051982;28;19912;-75
2022/07/15 00:34:51;;;;;;;;;;;16.00;88.10;;;;;;5051794;28;19908;-75
2022/07/15 00:37:16;;;;;;;;;;;15.70;90.10;;;;;;5052447;28;19944;-75
2022/07/15 00:39:42;;;;;;;;;;;15.40;90.80;;;;;;5052213;28;19951;-75
2022/07/15 00:42:07;;;;;;;;;;;15.20;90.90;;;;;;5051549;28;19935;-74
2022/07/15 00:44:33;;;;;;;;;;;15.10;91.50;;;;;;5046694;28;19912;-76
2022/07/15 00:47:00;;;;;;;;;;;15.00;91.70;;;;;;5039031;28;19919;-75
2022/07/15 00:49:25;;;;;;;;;;;15.00;91.90;;;;;;5052182;28;19909;-75
2022/07/15 00:51:52;;;;;;;;;;;14.90;92.40;;;;;;5055656;28;19916;-75
2022/07/15 00:54:23;;;;;;;;;;;14.80;93.00;;;;;;5055513;28;19924;-73
2022/07/15 00:56:49;;;;;;;;;;;14.70;93.10;;;;;;5038422;28;19909;-75
2022/07/15 00:59:15;;;;;;;;;;;14.70;92.90;;;;;;5053647;28;20332;-75
2022/07/15 01:01:45;;;;;;;;;;;14.80;92.80;;;;;;5054366;28;19913;-75
2022/07/15 01:04:11;;;;;;;;;;;14.80;92.70;;;;;;5056357;28;19916;-74
2022/07/15 01:06:36;;;;;;;;;;;14.70;93.60;;;;;;5056697;28;19909;-73
2022/07/15 01:09:02;;;;;;;;;;;14.60;93.80;;;;;;5049189;28;19909;-75
2022/07/15 01:11:30;;;;;;;;;;;14.50;94.50;;;;;;5056760;28;19917;-77
2022/07/15 01:13:56;;;;;;;;;;;14.40;94.80;;;;;;5046814;28;19909;-76
2022/07/15 01:16:22;;;;;;;;;;;14.30;95.20;;;;;;5034739;28;19910;-76
2022/07/15 01:18:47;;;;;;;;;;;14.20;95.60;;;;;;5038825;28;20454;-75
2022/07/15 01:21:13;;;;;;;;;;;14.10;96.30;;;;;;5038288;28;20007;-75
2022/07/15 01:23:42;;;;;;;;;;;14.00;97.10;;;;;;5037551;28;19991;-75
2022/07/15 01:26:11;;;;;;;;;;;13.90;97.80;;;;;;5035668;28;19913;-76
2022/07/15 01:28:37;;;;;;;;;;;13.90;97.60;;;;;;5032807;28;19910;-74
2022/07/15 01:31:03;;;;;;;;;;;13.80;98.10;;;;;;5031085;28;19936;-75
2022/07/15 01:33:30;;;;;;;;;;;13.70;98.30;;;;;;5031397;28;20319;-75
2022/07/15 01:35:55;;;;;;;;;;;13.70;98.00;;;;;;5030959;28;19913;-75
2022/07/15 01:38:21;;;;;;;;;;;13.80;98.00;;;;;;5032015;28;20289;-73
2022/07/15 01:40:46;;;;;;;;;;;14.00;97.40;;;;;;5032126;28;19955;-75
2022/07/15 01:43:12;;;;;;;;;;;13.80;98.10;;;;;;5030907;28;19913;-75
2022/07/15 01:45:41;;;;;;;;;;;13.70;98.70;;;;;;5032082;28;19916;-74
2022/07/15 01:48:06;;;;;;;;;;;13.70;99.00;;;;;;5030717;28;19909;-75
2022/07/15 01:50:32;;;;;;;;;;;13.70;98.90;;;;;;5030709;28;19959;-75
2022/07/15 01:52:57;;;;;;;;;;;13.80;98.50;;;;;;5030148;28;20389;-75
2022/07/15 01:55:23;;;;;;;;;;;13.80;98.40;;;;;;5029826;28;19910;-74
2022/07/15 01:57:49;;;;;;;;;;;13.70;98.90;;;;;;5030392;28;20512;-76
2022/07/15 02:00:16;;;;;;;;;;;13.70;99.90;;;;;;5028782;28;20358;-75
2022/07/15 02:02:41;;;;;;;;;;;13.70;99.90;;;;;;5029964;28;20004;-75
2022/07/15 02:05:07;;;;;;;;;;;13.60;99.90;;;;;;5030081;28;20349;-75
2022/07/15 02:07:33;;;;;;;;;;;13.50;99.90;;;;;;5031587;28;19913;-75
2022/07/15 02:09:58;;;;;;;;;;;13.60;99.90;;;;;;5023709;28;19909;-75
2022/07/15 02:12:25;;;;;;;;;;;13.60;99.90;;;;;;5030019;28;19909;-74
2022/07/15 02:14:50;;;;;;;;;;;13.40;99.90;;;;;;5031276;28;19909;-75
2022/07/15 02:17:16;;;;;;;;;;;13.40;99.90;;;;;;5031639;28;19909;-75
2022/07/15 02:19:41;;;;;;;;;;;13.20;99.90;;;;;;5031670;28;20366;-75
2022/07/15 02:22:07;;;;;;;;;;;13.20;99.90;;;;;;5031143;28;20000;-75
2022/07/15 02:24:32;;;;;;;;;;;13.40;99.90;;;;;;5030810;28;19917;-75
2022/07/15 02:26:58;;;;;;;;;;;13.30;99.90;;;;;;5032621;28;19956;-75
2022/07/15 02:29:23;;;;;;;;;;;13.10;99.90;;;;;;5031527;28;19917;-75
2022/07/15 02:31:49;;;;;;;;;;;12.90;99.90;;;;;;5031026;28;19955;-75
2022/07/15 02:34:14;;;;;;;;;;;12.70;99.90;;;;;;5030800;28;20274;-74
2022/07/15 02:36:40;;;;;;;;;;;12.60;99.90;;;;;;5031116;28;19920;-75
2022/07/15 02:39:05;;;;;;;;;;;12.60;99.90;;;;;;5031290;28;19909;-75
2022/07/15 02:41:31;;;;;;;;;;;12.50;99.90;;;;;;5030478;28;19917;-75
2022/07/15 02:43:56;;;;;;;;;;;12.40;99.90;;;;;;5030849;28;19913;-75
2022/07/15 02:46:22;;;;;;;;;;;12.30;99.90;;;;;;5030083;28;20379;-75
2022/07/15 02:48:47;;;;;;;;;;;12.10;99.90;;;;;;5029919;28;19909;-75
2022/07/15 02:51:14;;;;;;;;;;;12.20;99.90;;;;;;5031411;28;19963;-75
2022/07/15 02:53:39;;;;;;;;;;;12.10;99.90;;;;;;5030561;28;20351;-75
2022/07/15 02:56:05;;;;;;;;;;;12.10;99.90;;;;;;5046618;28;19948;-75
2022/07/15 02:58:31;;;;;;;;;;;12.10;99.90;;;;;;5032771;28;20342;-73
2022/07/15 03:00:57;;;;;;;;;;;12.00;99.90;;;;;;5031149;28;19916;-75
2022/07/15 03:03:22;;;;;;;;;;;11.90;99.90;;;;;;5029083;28;19955;-76
2022/07/15 03:05:48;;;;;;;;;;;11.80;99.90;;;;;;5029639;28;19948;-75
2022/07/15 03:08:14;;;;;;;;;;;11.60;99.90;;;;;;5031134;28;19917;-76
2022/07/15 03:10:40;;;;;;;;;;;11.60;99.90;;;;;;5030606;28;20044;-75
2022/07/15 03:13:05;;;;;;;;;;;11.60;99.90;;;;;;5027691;28;20066;-75
2022/07/15 03:15:31;;;;;;;;;;;11.60;99.90;;;;;;5030934;28;19932;-75
2022/07/15 03:17:56;;;;;;;;;;;11.60;99.90;;;;;;5024009;28;20325;-75
2022/07/15 03:20:22;;;;;;;;;;;11.50;99.90;;;;;;5030721;28;19913;-75
2022/07/15 03:22:47;;;;;;;;;;;11.40;99.90;;;;;;5030319;28;19910;-73
2022/07/15 03:25:13;;;;;;;;;;;11.40;99.90;;;;;;5031092;28;20382;-76
2022/07/15 03:27:38;;;;;;;;;;;11.40;99.90;;;;;;5030335;28;19910;-75
2022/07/15 03:30:04;;;;;;;;;;;11.40;99.90;;;;;;5029680;28;19920;-75
2022/07/15 03:32:29;;;;;;;;;;;11.30;99.90;;;;;;5033754;28;19909;-73
2022/07/15 03:34:57;;;;;;;;;;;11.30;99.90;;;;;;5033685;28;19910;-76
2022/07/15 03:37:22;;;;;;;;;;;11.30;99.90;;;;;;5033841;28;19932;-75
2022/07/15 03:39:48;;;;;;;;;;;11.30;99.90;;;;;;5034021;28;20294;-74
2022/07/15 03:42:13;;;;;;;;;;;11.30;99.90;;;;;;5033398;28;19940;-76
2022/07/15 03:44:39;;;;;;;;;;;11.30;99.90;;;;;;5032074;28;19952;-75
2022/07/15 03:47:04;;;;;;;;;;;11.30;99.90;;;;;;5034000;28;19913;-75
2022/07/15 03:49:30;;;;;;;;;;;11.30;99.90;;;;;;5034111;28;19912;-73
2022/07/15 03:51:55;;;;;;;;;;;11.20;99.90;;;;;;5033461;28;19920;-75
2022/07/15 03:54:21;;;;;;;;;;;11.20;99.90;;;;;;5031884;28;19914;-76
2022/07/15 03:56:47;;;;;;;;;;;11.10;99.90;;;;;;5030369;28;19960;-75
2022/07/15 03:59:17;;;;;;;;;;;11.20;99.90;;;;;;5033093;28;19913;-75
2022/07/15 04:01:42;;;;;;;;;;;11.20;99.90;;;;;;5027330;28;19913;-74
2022/07/15 04:04:08;;;;;;;;;;;11.10;99.90;;;;;;5033279;28;19909;-75
2022/07/15 04:06:34;;;;;;;;;;;11.00;99.90;;;;;;5033642;28;20245;-75
2022/07/15 04:09:00;;;;;;;;;;;11.00;99.90;;;;;;5033456;28;20301;-76
2022/07/15 04:11:25;;;;;;;;;;;11.10;99.90;;;;;;5033145;28;19963;-75
2022/07/15 04:13:51;;;;;;;;;;;11.10;99.90;;;;;;5030354;28;19921;-75
2022/07/15 04:16:16;;;;;;;;;;;11.20;99.90;;;;;;5032264;28;19984;-74
2022/07/15 04:18:42;;;;;;;;;;;11.30;99.90;;;;;;5033158;28;19915;-75
2022/07/15 04:21:08;;;;;;;;;;;11.40;99.90;;;;;;5036571;28;19960;-75
2022/07/15 04:23:33;;;;;;;;;;;11.50;99.90;;;;;;5051425;28;19916;-76
2022/07/15 04:25:59;;;;;;;;;;;11.50;99.90;;;;;;5052421;28;19920;-74
2022/07/15 04:28:25;;;;;;;;;;;11.50;99.90;;;;;;5027824;28;19963;-75
2022/07/15 04:30:51;;;;;;;;;;;11.60;99.90;;;;;;5027237;28;20010;-75
2022/07/15 04:33:17;;;;;;;;;;;11.60;99.90;;;;;;5032108;28;20370;-75
2022/07/15 04:35:43;;;;;;;;;;;11.60;99.90;;;;;;5051250;28;19913;-76
2022/07/15 04:38:08;;;;;;;;;;;11.60;99.90;;;;;;5052013;28;20206;-75
2022/07/15 04:40:35;;;;;;;;;;;11.60;99.90;;;;;;5052081;28;20390;-75
2022/07/15 04:43:01;;;;;;;;;;;11.70;99.90;;;;;;5051148;28;20520;-75
2022/07/15 04:45:26;;;;;;;;;;;11.80;99.90;;;;;;5051588;28;19944;-75
2022/07/15 04:47:52;;;;;;;;;;;11.80;99.90;;;;;;5052124;28;19955;-75
2022/07/15 04:53:01;;;;;;;;;;;11.90;99.90;;;;;;5051246;28;19923;-73
2022/07/15 04:55:27;;;;;;;;;;;11.90;99.90;;;;;;5051219;28;19920;-76
2022/07/15 04:57:52;;;;;;;;;;;11.90;99.90;;;;;;5048428;28;19916;-76
2022/07/15 05:00:18;;;;;;;;;;;12.10;99.90;;;;;;5022514;28;20004;-75
2022/07/15 05:02:44;;;;;;;;;;;12.30;99.90;;;;;;5051032;28;19921;-73
2022/07/15 05:05:10;;;;;;;;;;;12.40;99.90;;;;;;5051118;28;19916;-75
2022/07/15 05:07:37;;;;;;;;;;;12.50;99.90;;;;;;5051666;28;19970;-74
2022/07/15 05:10:03;;;;;;;;;;;12.60;99.90;;;;;;5050091;28;19909;-74
2022/07/15 05:12:29;;;;;;;;;;;12.80;99.90;;;;;;5049681;28;19912;-75
2022/07/15 05:14:54;;;;;;;;;;;13.00;99.90;;;;;;5051119;28;19978;-75
2022/07/15 05:17:20;;;;;;;;;;;13.10;99.90;;;;;;5051762;28;20407;-74
2022/07/15 05:19:45;;;;;;;;;;;13.20;99.90;;;;;;5051450;28;20441;-75
2022/07/15 05:22:11;;;;;;;;;;;13.30;99.90;;;;;;5029794;28;19923;-76
2022/07/15 05:24:36;;;;;;;;;;;13.50;99.90;;;;;;5029532;28;20274;-75
2022/07/15 05:27:02;;;;;;;;;;;13.70;99.90;;;;;;5030541;28;19913;-74
2022/07/15 05:29:28;;;;;;;;;;;13.90;99.90;;;;;;5030933;28;19913;-75
2022/07/15 05:31:54;;;;;;;;;;;14.10;99.90;;;;;;5030331;28;20354;-75
2022/07/15 05:34:19;;;;;;;;;;;14.20;99.90;;;;;;5030118;28;20007;-75
2022/07/15 05:36:45;;;;;;;;;;;14.40;99.90;;;;;;5031952;28;19919;-75
2022/07/15 05:39:10;;;;;;;;;;;14.60;99.90;;;;;;5032146;28;20004;-73
2022/07/15 05:41:36;;;;;;;;;;;14.70;99.90;;;;;;5031493;28;20370;-76
2022/07/15 05:44:02;;;;;;;;;;;14.80;99.90;;;;;;5029809;28;19920;-75
2022/07/15 05:46:28;;;;;;;;;;;14.90;99.90;;;;;;5031631;28;20285;-75
2022/07/15 05:48:53;;;;;;;;;;;15.10;99.90;;;;;;5031616;28;19916;-75
2022/07/15 05:51:19;;;;;;;;;;;15.80;99.90;;;;;;5031142;28;19951;-74
2022/07/15 05:53:44;;;;;;;;;;;17.20;99.90;;;;;;5023108;28;20079;-75
2022/07/15 05:56:10;;;;;;;;;;;17.20;99.90;;;;;;5050789;28;19909;-75
2022/07/15 05:58:36;;;;;;;;;;;16.70;99.90;;;;;;5050848;28;19999;-75
2022/07/15 06:01:01;;;;;;;;;;;16.60;99.90;;;;;;5050589;28;19909;-75
2022/07/15 06:03:27;;;;;;;;;;;16.70;99.90;;;;;;5049537;28;20003;-75
2022/07/15 06:05:52;;;;;;;;;;;17.20;99.90;;;;;;5050751;28;19909;-76
2022/07/15 06:08:18;;;;;;;;;;;18.80;97.50;;;;;;5050684;28;19908;-75
2022/07/15 06:10:43;;;;;;;;;;;18.30;98.30;;;;;;5050799;28;20282;-74
2022/07/15 06:13:09;;;;;;;;;;;17.60;98.20;;;;;;5049369;28;19956;-75
2022/07/15 06:15:34;;;;;;;;;;;17.20;98.30;;;;;;5049346;28;19920;-76
2022/07/15 06:18:00;;;;;;;;;;;17.00;97.40;;;;;;5050451;28;19916;-75
2022/07/15 06:20:26;;;;;;;;;;;17.10;98.50;;;;;;5048074;28;19962;-74
2022/07/15 06:22:51;;;;;;;;;;;17.10;99.90;;;;;;5033998;28;19962;-74
2022/07/15 06:25:16;;;;;;;;;;;17.10;98.50;;;;;;5051392;28;19909;-75
2022/07/15 06:27:42;;;;;;;;;;;18.30;96.50;;;;;;5050098;28;19970;-75
2022/07/15 06:30:08;;;;;;;;;;;19.90;93.00;;;;;;5050456;28;19916;-73
2022/07/15 06:32:35;;;;;;;;;;;20.30;90.10;;;;;;5049746;28;19909;-74
2022/07/15 06:35:00;;;;;;;;;;;20.60;88.90;;;;;;5048746;28;19913;-76
2022/07/15 06:37:27;;;;;;;;;;;20.50;88.90;;;;;;5045516;28;20007;-73
2022/07/15 06:39:54;;;;;;;;;;;20.30;90.60;;;;;;5048264;28;19909;-76
2022/07/15 06:42:20;;;;;;;;;;;19.80;88.30;;;;;;5049938;28;19935;-76
2022/07/15 06:44:46;;;;;;;;;;;19.30;89.30;;;;;;5050357;28;19923;-75
2022/07/15 06:47:11;;;;;;;;;;;18.80;88.30;;;;;;5050121;28;19908;-75
2022/07/15 06:49:38;;;;;;;;;;;18.70;90.50;;;;;;5050333;28;19912;-75
2022/07/15 06:52:03;;;;;;;;;;;19.40;91.30;;;;;;5036795;28;19915;-75
2022/07/15 06:54:29;;;;;;;;;;;20.80;85.00;;;;;;5040031;28;20010;-75
2022/07/15 06:56:55;;;;;;;;;;;20.70;81.20;;;;;;5050222;28;19917;-75
2022/07/15 06:59:20;;;;;;;;;;;20.60;79.40;;;;;;5051123;28;20354;-75
2022/07/15 07:01:46;;;;;;;;;;;20.80;81.20;;;;;;5053551;28;19909;-76
2022/07/15 07:04:12;;;;;;;;;;;21.70;74.60;;;;;;5053620;28;20415;-75
2022/07/15 07:06:37;;;;;;;;;;;22.10;75.90;;;;;;5052624;28;20262;-75
2022/07/15 07:09:03;;;;;;;;;;;22.30;75.60;;;;;;5052661;28;19909;-74
2022/07/15 07:11:28;;;;;;;;;;;22.90;73.80;;;;;;5053467;28;19917;-76
2022/07/15 07:13:54;;;;;;;;;;;23.00;70.50;;;;;;5053035;28;19916;-75
2022/07/15 07:16:20;;;;;;;;;;;23.10;70.50;;;;;;5054125;28;19952;-76
2022/07/15 07:18:45;;;;;;;;;;;23.00;69.70;;;;;;5053877;28;20323;-75
2022/07/15 07:21:11;;;;;;;;;;;23.10;71.30;;;;;;5045382;28;19909;-74
2022/07/15 07:23:39;;;;;;;;;;;23.70;72.20;;;;;;5033224;28;19909;-75
2022/07/15 07:26:05;;;;;;;;;;;23.80;68.60;;;;;;5033390;28;19913;-76
2022/07/15 07:28:30;;;;;;;;;;;23.80;66.20;;;;;;5034268;28;19909;-75
2022/07/15 07:30:56;;;;;;;;;;;23.50;66.70;;;;;;5027033;28;20289;-75
2022/07/15 07:33:22;;;;;;;;;;;23.70;65.90;;;;;;5033315;28;19913;-75
2022/07/15 07:35:47;;;;;;;;;;;24.30;64.70;;;;;;5034093;28;19947;-74
2022/07/15 07:38:13;;;;;;;;;;;24.90;60.40;;;;;;5040108;28;19916;-76
2022/07/15 07:40:38;;;;;;;;;;;24.90;61.30;;;;;;5053403;28;19909;-76
2022/07/15 07:43:04;;;;;;;;;;;24.90;62.40;;;;;;5052547;28;19920;-75
2022/07/15 07:45:29;;;;;;;;;;;25.10;64.10;;;;;;5053258;28;19979;-74
2022/07/15 07:47:55;;;;;;;;;;;24.80;59.60;;;;;;5053273;28;20027;-76
2022/07/15 07:50:21;;;;;;;;;;;24.80;62.20;;;;;;5051323;28;19909;-76
2022/07/15 07:52:47;;;;;;;;;;;25.00;64.40;;;;;;5026986;28;20267;-76
2022/07/15 07:55:13;;;;;;;;;;;25.20;60.70;;;;;;5050323;28;19909;-75
2022/07/15 07:57:52;;;;;;;;;;;25.10;55.30;;;;;;5052781;28;19916;-76
2022/07/15 08:00:18;;;;;;;;;;;24.70;58.10;;;;;;5052988;28;19916;-75
2022/07/15 08:02:44;;;;;;;;;;;24.70;57.80;;;;;;5052542;28;19909;-74
2022/07/15 08:05:10;;;;;;;;;;;25.30;65.20;;;;;;5051051;28;19909;-74
2022/07/15 08:07:36;;;;;;;;;;;25.10;57.40;;;;;;5051646;28;19908;-78
2022/07/15 08:10:02;;;;;;;;;;;25.50;61.40;;;;;;5052901;28;19909;-77
2022/07/15 08:12:28;;;;;;;;;;;25.90;59.30;;;;;;5051922;28;20003;-76
2022/07/15 08:14:54;;;;;;;;;;;26.50;59.50;;;;;;5052107;28;20035;-76
2022/07/15 08:17:20;;;;;;;;;;;27.10;56.80;;;;;;5052562;28;20367;-76
2022/07/15 08:19:46;;;;;;;;;;;27.40;54.00;;;;;;5052656;28;20004;-76
2022/07/15 08:22:12;;;;;;;;;;;27.00;54.30;;;;;;5031394;28;20003;-76
2022/07/15 08:24:37;;;;;;;;;;;26.20;57.10;;;;;;5039953;28;19909;-76
2022/07/15 08:27:03;;;;;;;;;;;26.60;57.40;;;;;;5052262;28;19943;-74
2022/07/15 08:29:28;;;;;;;;;;;27.10;56.70;;;;;;5052192;28;19909;-76
2022/07/15 08:31:54;;;;;;;;;;;26.80;58.60;;;;;;5052020;28;19921;-76
2022/07/15 08:34:19;;;;;;;;;;;28.10;58.80;;;;;;5051604;28;19961;-76
2022/07/15 08:36:45;;;;;;;;;;;27.30;50.60;;;;;;5052211;28;19913;-75
2022/07/15 08:39:11;;;;;;;;;;;26.60;53.30;;;;;;5052570;28;19952;-76
2022/07/15 08:41:37;;;;;;;;;;;26.70;55.90;;;;;;5051665;28;19913;-76
2022/07/15 08:44:03;;;;;;;;;;;27.60;57.90;;;;;;5051424;28;20309;-76
2022/07/15 08:46:28;;;;;;;;;;;28.40;56.10;;;;;;5052059;28;20266;-76
2022/07/15 08:48:58;;;;;;;;;;;27.50;53.90;;;;;;5052076;28;20358;-76
2022/07/15 08:51:24;;;;;;;;;;;27.90;53.50;;;;;;5041295;28;19910;-76
2022/07/15 08:53:51;;;;;;;;;;;28.60;57.00;;;;;;5032827;28;19921;-76
2022/07/15 08:56:18;;;;;;;;;;;27.30;52.50;;;;;;5052246;28;19932;-76
2022/07/15 08:58:44;;;;;;;;;;;28.70;55.10;;;;;;5051438;28;20324;-76
2022/07/15 09:01:09;;;;;;;;;;;27.90;53.40;;;;;;5051841;28;19909;-74
2022/07/15 09:03:35;;;;;;;;;;;28.30;57.80;;;;;;5050843;28;19996;-75
2022/07/15 09:06:00;;;;;;;;;;;28.60;54.60;;;;;;5051717;28;20357;-76
2022/07/15 09:08:26;;;;;;;;;;;28.60;54.20;;;;;;5051642;28;19908;-76
2022/07/15 09:10:58;;;;;;;;;;;27.80;51.20;;;;;;5051486;28;19921;-74
2022/07/15 09:13:26;;;;;;;;;;;28.50;53.50;;;;;;5025506;28;20457;-76
2022/07/15 09:15:52;;;;;;;;;;;28.80;52.90;;;;;;5031242;28;19916;-77
2022/07/15 09:18:18;;;;;;;;;;;29.50;52.60;;;;;;5045898;28;20408;-77
2022/07/15 09:20:44;;;;;;;;;;;28.90;55.40;;;;;;5046636;28;20027;-76
2022/07/15 09:23:11;;;;;;;;;;;29.50;54.80;;;;;;5029429;28;19917;-76
2022/07/15 09:25:37;;;;;;;;;;;29.00;52.90;;;;;;5051225;28;19956;-77
2022/07/15 09:28:04;;;;;;;;;;;29.50;54.00;;;;;;5050081;28;20282;-76
2022/07/15 09:33:36;;;;;;;;;;;27.50;60.50;;;;;;5027666;28;19924;-77
2022/07/15 09:36:21;;;;;;;;;;;29.50;51.90;;;;;;5032049;28;19916;-76
2022/07/15 09:38:46;;;;;;;;;;;27.20;56.80;;;;;;5032040;28;20270;-77
2022/07/15 09:41:13;;;;;;;;;;;28.60;54.50;;;;;;5030493;28;19915;-77
2022/07/15 09:43:46;;;;;;;;;;;29.20;58.20;;;;;;5031121;28;19909;-77
2022/07/15 09:46:13;;;;;;;;;;;29.00;55.00;;;;;;5031912;28;20386;-76
2022/07/15 09:48:40;;;;;;;;;;;28.60;52.10;;;;;;5031906;28;19916;-76
2022/07/15 09:51:05;;;;;;;;;;;28.90;54.10;;;;;;5029701;28;19917;-77
2022/07/15 09:53:32;;;;;;;;;;;28.60;56.60;;;;;;5018358;28;19917;-76
2022/07/15 09:55:58;;;;;;;;;;;27.30;56.00;;;;;;5049523;28;19909;-77
2022/07/15 09:58:24;;;;;;;;;;;27.30;54.20;;;;;;5049027;28;19916;-76
2022/07/15 10:00:52;;;;;;;;;;;28.30;56.40;;;;;;5050789;28;19945;-76
2022/07/15 10:03:18;;;;;;;;;;;27.20;52.80;;;;;;5050046;28;19936;-77
2022/07/15 10:05:44;;;;;;;;;;;27.30;55.20;;;;;;5050841;28;20035;-77
2022/07/15 10:08:11;;;;;;;;;;;29.00;54.80;;;;;;5049628;28;20004;-77
2022/07/15 10:10:39;;;;;;;;;;;29.60;54.20;;;;;;5024970;28;20323;-77
2022/07/15 10:13:23;;;;;;;;;;;28.20;51.70;;;;;;5029106;28;19924;-74
2022/07/15 10:15:58;;;;;;;;;;;29.20;52.80;;;;;;5027711;28;20114;-77
2022/07/15 10:18:43;;;;;;;;;;;28.90;53.00;;;;;;5030047;28;19916;-76
2022/07/15 10:21:19;;;;;;;;;;;28.20;55.80;;;;;;5031239;28;19909;-76
2022/07/15 10:23:54;;;;;;;;;;;28.90;53.60;;;;;;5023807;28;19913;-76
2022/07/15 10:26:27;;;;;;;;;;;29.00;55.20;;;;;;5029551;28;20327;-76
2022/07/15 10:28:58;;;;;;;;;;;30.20;53.90;;;;;;5039112;28;19909;-76
2022/07/15 10:31:28;;;;;;;;;;;30.30;50.10;;;;;;5050311;28;19948;-75
2022/07/15 10:34:03;;;;;;;;;;;30.60;51.40;;;;;;5035108;28;20059;-76
2022/07/15 10:36:38;;;;;;;;;;;29.90;50.30;;;;;;5054816;28;20286;-76
2022/07/15 10:39:04;;;;;;;;;;;29.50;53.70;;;;;;5054707;28;20389;-75
2022/07/15 10:41:48;;;;;;;;;;;28.00;49.90;;;;;;5054511;28;19909;-74
2022/07/15 10:44:13;;;;;;;;;;;28.20;54.20;;;;;;5053656;28;20370;-76
2022/07/15 10:46:38;;;;;;;;;;;29.80;54.30;;;;;;5046532;28;19909;-77
2022/07/15 10:49:08;;;;;;;;;;;30.30;48.90;;;;;;5054568;28;19909;-75
2022/07/15 10:51:37;;;;;;;;;;;28.80;55.70;;;;;;5037843;28;19913;-76
2022/07/15 10:54:07;;;;;;;;;;;29.20;49.70;;;;;;5031586;28;20387;-76
2022/07/15 10:56:34;;;;;;;;;;;30.40;48.40;;;;;;5035036;28;20051;-76
2022/07/15 10:59:07;;;;;;;;;;;28.90;49.80;;;;;;5035060;28;19909;-76
2022/07/15 11:01:32;;;;;;;;;;;29.90;52.40;;;;;;5027284;28;19914;-75
2022/07/15 11:04:10;;;;;;;;;;;28.50;47.60;;;;;;5034400;28;19909;-76
2022/07/15 11:06:55;;;;;;;;;;;29.70;49.90;;;;;;5033576;28;19967;-76
2022/07/15 11:09:40;;;;;;;;;;;28.70;52.30;;;;;;5033267;28;19909;-76
2022/07/15 11:12:05;;;;;;;;;;;28.50;55.80;;;;;;5034736;28;20336;-76
2022/07/15 11:14:40;;;;;;;;;;;27.60;53.30;;;;;;5032414;28;19992;-77
2022/07/15 11:17:05;;;;;;;;;;;27.70;52.90;;;;;;5033380;28;19913;-77
2022/07/15 11:19:32;;;;;;;;;;;27.80;56.80;;;;;;5035034;28;19940;-76
2022/07/15 11:21:58;;;;;;;;;;;28.30;52.90;;;;;;5040747;28;19909;-76
2022/07/15 11:24:24;;;;;;;;;;;28.10;51.00;;;;;;5036473;28;19910;-76
2022/07/15 11:26:50;;;;;;;;;;;27.50;53.40;;;;;;5053618;28;19936;-76
2022/07/15 11:29:15;;;;;;;;;;;28.50;52.90;;;;;;5053318;28;19991;-77
2022/07/15 11:31:42;;;;;;;;;;;28.50;52.80;;;;;;5053432;28;20417;-74
2022/07/15 11:34:08;;;;;;;;;;;26.80;51.40;;;;;;5032310;28;19913;-76
2022/07/15 11:36:33;;;;;;;;;;;25.60;54.90;;;;;;5032913;28;19916;-75
2022/07/15 11:38:59;;;;;;;;;;;27.30;58.60;;;;;;5034166;28;19917;-74
2022/07/15 11:46:54;;;;;;;;;;;27.80;54.70;;;;;;5034341;28;19915;-77
2022/07/15 11:49:41;;;;;;;;;;;29.00;52.60;;;;;;5033925;28;19909;-76
2022/07/15 11:52:09;;;;;;;;;;;29.10;49.60;;;;;;5031518;28;19909;-76
2022/07/15 11:54:35;;;;;;;;;;;28.80;51.40;;;;;;5031795;28;20378;-76
2022/07/15 11:57:06;;;;;;;;;;;27.30;54.60;;;;;;5052942;28;19908;-76
2022/07/15 11:59:32;;;;;;;;;;;26.60;57.80;;;;;;5052875;28;19909;-75
2022/07/15 12:02:01;;;;;;;;;;;27.70;53.50;;;;;;5026848;28;20128;-76
2022/07/15 12:04:26;;;;;;;;;;;28.50;52.40;;;;;;5033272;28;19909;-75
2022/07/15 12:06:52;;;;;;;;;;;29.40;53.60;;;;;;5033688;28;20287;-76
2022/07/15 12:09:17;;;;;;;;;;;30.50;53.10;;;;;;5033786;28;19909;-76
2022/07/15 12:11:43;;;;;;;;;;;30.20;55.50;;;;;;5033489;28;20028;-76
2022/07/15 12:14:12;;;;;;;;;;;29.90;51.00;;;;;;5032563;28;20401;-76
2022/07/15 12:16:45;;;;;;;;;;;29.70;51.00;;;;;;5033491;28;19909;-74
2022/07/15 12:19:14;;;;;;;;;;;28.00;49.90;;;;;;5032504;28;20278;-76
2022/07/15 12:21:41;;;;;;;;;;;27.80;50.90;;;;;;5031565;28;20026;-75
2022/07/15 12:24:08;;;;;;;;;;;28.90;56.40;;;;;;5034768;28;19909;-75
2022/07/15 12:26:38;;;;;;;;;;;30.70;52.60;;;;;;5031993;28;19956;-76
2022/07/15 12:29:05;;;;;;;;;;;30.80;49.10;;;;;;5031762;28;19917;-76
2022/07/15 12:31:31;;;;;;;;;;;31.40;51.50;;;;;;5032849;28;19909;-76
2022/07/15 12:33:57;;;;;;;;;;;29.80;49.80;;;;;;5031460;28;19913;-76
2022/07/15 12:36:24;;;;;;;;;;;27.60;52.30;;;;;;5031900;28;19924;-75
2022/07/15 12:39:08;;;;;;;;;;;26.70;54.90;;;;;;5033133;28;19917;-76
2022/07/15 12:41:35;;;;;;;;;;;28.90;51.10;;;;;;5034584;28;19920;-76
2022/07/15 12:44:02;;;;;;;;;;;31.60;47.70;;;;;;5032686;28;19940;-77
2022/07/15 12:46:48;;;;;;;;;;;28.50;48.70;;;;;;5033710;28;19992;-77
2022/07/15 12:49:32;;;;;;;;;;;30.30;47.60;;;;;;5033327;28;19963;-77
2022/07/15 12:51:58;;;;;;;;;;;32.70;49.70;;;;;;5031673;28;19913;-77
2022/07/15 12:54:23;;;;;;;;;;;28.30;50.30;;;;;;5034292;28;20435;-76
2022/07/15 12:56:50;;;;;;;;;;;29.50;50.60;;;;;;5032228;28;19913;-76
2022/07/15 12:59:15;;;;;;;;;;;32.80;44.50;;;;;;5053606;28;19920;-77
2022/07/15 13:01:44;;;;;;;;;;;30.30;48.60;;;;;;5051340;28;20286;-77
2022/07/15 13:04:10;;;;;;;;;;;33.60;46.30;;;;;;5052754;28;19908;-76
2022/07/15 13:06:35;;;;;;;;;;;33.70;41.80;;;;;;5050873;28;19913;-76
2022/07/15 13:09:01;;;;;;;;;;;33.70;42.80;;;;;;5052016;28;19915;-77
2022/07/15 13:11:26;;;;;;;;;;;33.30;44.60;;;;;;5051277;28;19917;-76
2022/07/15 13:13:52;;;;;;;;;;;29.00;50.50;;;;;;5036108;28;20355;-76
2022/07/15 13:16:17;;;;;;;;;;;31.00;49.20;;;;;;5051722;28;19932;-77
2022/07/15 13:18:43;;;;;;;;;;;31.90;44.60;;;;;;5051597;28;19956;-77
2022/07/15 13:21:08;;;;;;;;;;;32.60;45.80;;;;;;5043114;28;19913;-76
2022/07/15 13:23:34;;;;;;;;;;;32.70;45.30;;;;;;5037840;28;19955;-77
2022/07/15 13:25:59;;;;;;;;;;;33.80;44.10;;;;;;5032869;28;20007;-77
2022/07/15 13:28:25;;;;;;;;;;;32.30;46.90;;;;;;5032733;28;19919;-77
2022/07/15 13:30:51;;;;;;;;;;;33.20;43.00;;;;;;5033623;28;19915;-77
2022/07/15 13:33:17;;;;;;;;;;;34.10;43.10;;;;;;5031476;28;19913;-74
2022/07/15 13:35:43;;;;;;;;;;;32.80;46.00;;;;;;5032127;28;20383;-76
2022/07/15 13:38:08;;;;;;;;;;;32.80;48.00;;;;;;5032154;28;19909;-76
2022/07/15 13:40:34;;;;;;;;;;;34.10;44.30;;;;;;5032015;28;19913;-75
2022/07/15 13:42:59;;;;;;;;;;;33.20;43.70;;;;;;5031662;28;19909;-77
2022/07/15 13:45:26;;;;;;;;;;;34.10;48.00;;;;;;5031378;28;19967;-76
2022/07/15 13:47:52;;;;;;;;;;;33.30;42.90;;;;;;5032346;28;19916;-77
2022/07/15 13:53:01;;;;;;;;;;;33.50;42.40;;;;;;5030956;28;19932;-76
2022/07/15 13:55:27;;;;;;;;;;;33.10;44.20;;;;;;5031472;28;20366;-76
2022/07/15 13:57:53;;;;;;;;;;;32.20;45.70;;;;;;5031781;28;19924;-76
2022/07/15 14:00:21;;;;;;;;;;;32.10;46.70;;;;;;5031639;28;19909;-75
2022/07/15 14:02:47;;;;;;;;;;;31.70;49.40;;;;;;5031290;28;19910;-75
2022/07/15 14:05:13;;;;;;;;;;;33.70;44.90;;;;;;5031097;28;19910;-76
2022/07/15 14:07:39;;;;;;;;;;;32.00;48.80;;;;;;5030254;28;19909;-75
2022/07/15 14:10:05;;;;;;;;;;;30.50;46.20;;;;;;5031636;28;19932;-76
2022/07/15 14:12:31;;;;;;;;;;;31.80;47.90;;;;;;5031685;28;19920;-75
2022/07/15 14:14:56;;;;;;;;;;;33.30;46.40;;;;;;5030603;28;19917;-76
2022/07/15 14:17:22;;;;;;;;;;;32.10;46.50;;;;;;5031558;28;19955;-76
2022/07/15 14:19:47;;;;;;;;;;;31.90;44.50;;;;;;5031639;28;19916;-76
2022/07/15 14:22:13;;;;;;;;;;;32.90;46.30;;;;;;5036205;28;19910;-75
2022/07/15 14:24:38;;;;;;;;;;;32.10;45.00;;;;;;5032087;28;20259;-75
2022/07/15 14:27:04;;;;;;;;;;;30.80;46.80;;;;;;5031426;28;19909;-76